sensor_id;sensor_type;location;lat;lon;timestamp;temperature;humidity
16140;DHT22;8175;49.326;12.690;2023-05-16T00:01:46;8.30;99.90
16140;DHT22;8175;49.326;12.690;2023-05-16T00:04:12;8.40;99.90
16140;DHT22;8175;49.326;12.690;2023-05-16T00:06:38;8.50;99.90
16140;DHT22;8175;49.326;12.690;2023-05-16T00:09:03;8.50;99.90
16140;DHT22;8175;49.326;12.690;2023-05-16T00:11:29;8.60;99.90
16140;DHT22;8175;49.326;12.690;2023-05-16T00:13:55;8.60;99.90
16140;DHT22;8175;49.326;12.690;2023-05-16T00:16:20;8.70;99.90
16140;DHT22;8175;49.326;12.690;2023-05-16T00:18:47;8.80;99.90
16140;DHT22;8175;49.326;12.690;2023-05-16T00:21:12;8.80;99.90
16140;DHT22;8175;49.326;12.690;2023-05-16T00:23:38;8.80;99.90
16140;DHT22;8175;49.326;12.690;2023-05-16T00:26:04;8.80;99.90
16140;DHT22;8175;49.326;12.690;2023-05-16T00:28:29;8.80;99.90
16140;DHT22;8175;49.326;12.690;2023-05-16T00:30:55;8.80;99.90
16140;DHT22;8175;49.326;12.690;2023-05-16T00:33:21;8.70;99.90
16140;DHT22;8175;49.326;12.690;2023-05-16T00:35:46;8.70;99.90
16140;DHT22;8175;49.326;12.690;2023-05-16T00:38:12;8.60;99.90
16140;DHT22;8175;49.326;12.690;2023-05-16T00:40:38;8.60;99.90
16140;DHT22;8175;49.326;12.690;2023-05-16T00:43:03;8.60;99.90
16140;DHT22;8175;49.326;12.690;2023-05-16T00:45:29;8.70;99.90
16140;DHT22;8175;49.326;12.690;2023-05-16T00:47:55;8.70;99.90
16140;DHT22;8175;49.326;12.690;2023-05-16T00:50:21;8.80;99.90
16140;DHT22;8175;49.326;12.690;2023-05-16T00:52:46;8.80;99.90
16140;DHT22;8175;49.326;12.690;2023-05-16T00:55:13;8.90;99.90
16140;DHT22;8175;49.326;12.690;2023-05-16T00:57:38;8.90;99.90
16140;DHT22;8175;49.326;12.690;2023-05-16T01:00:07;8.90;99.90
16140;DHT22;8175;49.326;12.690;2023-05-16T01:02:37;8.90;99.90
16140;DHT22;8175;49.326;12.690;2023-05-16T01:05:03;9.00;99.90
16140;DHT22;8175;49.326;12.690;2023-05-16T01:07:34;9.00;99.90
16140;DHT22;8175;49.326;12.690;2023-05-16T01:10:00;9.00;99.90
16140;DHT22;8175;49.326;12.690;2023-05-16T01:12:42;9.00;99.90
16140;DHT22;8175;49.326;12.690;2023-05-16T01:15:28;9.00;99.90
16140;DHT22;8175;49.326;12.690;2023-05-16T01:20:56;9.10;99.90
16140;DHT22;8175;49.326;12.690;2023-05-16T01:23:39;9.10;99.90
16140;DHT22;8175;49.326;12.690;2023-05-16T01:26:15;9.10;99.90
16140;DHT22;8175;49.326;12.690;2023-05-16T01:28:44;9.10;99.90
16140;DHT22;8175;49.326;12.690;2023-05-16T01:31:10;9.10;99.90
16140;DHT22;8175;49.326;12.690;2023-05-16T01:33:36;9.20;99.90
16140;DHT22;8175;49.326;12.690;2023-05-16T01:36:23;9.20;99.90
16140;DHT22;8175;49.326;12.690;2023-05-16T01:39:00;9.20;99.90
16140;DHT22;8175;49.326;12.690;2023-05-16T04:16:03;7.70;99.90
16140;DHT22;8175;49.326;12.690;2023-05-16T04:18:29;7.80;99.90
16140;DHT22;8175;49.326;12.690;2023-05-16T04:20:55;7.90;99.90
16140;DHT22;8175;49.326;12.690;2023-05-16T04:23:20;8.00;99.90
16140;DHT22;8175;49.326;12.690;2023-05-16T04:25:46;8.10;99.90
16140;DHT22;8175;49.326;12.690;2023-05-16T04:28:12;8.20;99.90
16140;DHT22;8175;49.326;12.690;2023-05-16T04:30:37;8.30;99.90
16140;DHT22;8175;49.326;12.690;2023-05-16T04:33:03;8.40;99.90
16140;DHT22;8175;49.326;12.690;2023-05-16T04:35:29;8.50;99.90
16140;DHT22;8175;49.326;12.690;2023-05-16T04:37:54;8.50;99.90
16140;DHT22;8175;49.326;12.690;2023-05-16T04:40:20;8.50;99.90
16140;DHT22;8175;49.326;12.690;2023-05-16T04:42:46;8.50;99.90
16140;DHT22;8175;49.326;12.690;2023-05-16T04:45:12;8.60;99.90
16140;DHT22;8175;49.326;12.690;2023-05-16T04:47:39;8.60;99.90
16140;DHT22;8175;49.326;12.690;2023-05-16T04:50:05;8.70;99.90
16140;DHT22;8175;49.326;12.690;2023-05-16T04:52:33;8.90;99.90
16140;DHT22;8175;49.326;12.690;2023-05-16T04:54:59;9.00;99.90
16140;DHT22;8175;49.326;12.690;2023-05-16T04:57:25;9.10;99.90
16140;DHT22;8175;49.326;12.690;2023-05-16T04:59:52;9.20;99.90
16140;DHT22;8175;49.326;12.690;2023-05-16T05:02:17;9.40;99.90
16140;DHT22;8175;49.326;12.690;2023-05-16T05:04:43;9.50;99.90
16140;DHT22;8175;49.326;12.690;2023-05-16T05:07:09;9.60;99.90
16140;DHT22;8175;49.326;12.690;2023-05-16T05:09:34;9.70;99.90
16140;DHT22;8175;49.326;12.690;2023-05-16T05:12:00;9.90;99.90
16140;DHT22;8175;49.326;12.690;2023-05-16T05:14:26;10.10;99.90
16140;DHT22;8175;49.326;12.690;2023-05-16T05:16:51;10.00;99.90
16140;DHT22;8175;49.326;12.690;2023-05-16T05:19:17;10.00;99.90
16140;DHT22;8175;49.326;12.690;2023-05-16T05:21:43;9.90;99.90
16140;DHT22;8175;49.326;12.690;2023-05-16T05:24:08;10.00;99.90
16140;DHT22;8175;49.326;12.690;2023-05-16T05:26:34;9.90;99.90
16140;DHT22;8175;49.326;12.690;2023-05-16T05:29:00;9.90;99.90
16140;DHT22;8175;49.326;12.690;2023-05-16T05:31:26;9.90;99.90
16140;DHT22;8175;49.326;12.690;2023-05-16T05:33:52;10.00;99.90
16140;DHT22;8175;49.326;12.690;2023-05-16T05:36:17;10.10;99.90
16140;DHT22;8175;49.326;12.690;2023-05-16T05:38:43;10.20;99.90
16140;DHT22;8175;49.326;12.690;2023-05-16T05:41:09;10.40;99.90
16140;DHT22;8175;49.326;12.690;2023-05-16T05:43:36;10.60;99.90
16140;DHT22;8175;49.326;12.690;2023-05-16T05:46:02;10.60;99.90
16140;DHT22;8175;49.326;12.690;2023-05-16T05:48:27;10.60;99.90
16140;DHT22;8175;49.326;12.690;2023-05-16T05:50:54;10.70;99.90
16140;DHT22;8175;49.326;12.690;2023-05-16T05:53:20;10.80;99.90
16140;DHT22;8175;49.326;12.690;2023-05-16T05:55:46;10.90;99.90
16140;DHT22;8175;49.326;12.690;2023-05-16T05:58:12;10.90;99.90
16140;DHT22;8175;49.326;12.690;2023-05-16T06:00:37;10.90;99.90
16140;DHT22;8175;49.326;12.690;2023-05-16T06:03:03;10.90;99.90
16140;DHT22;8175;49.326;12.690;2023-05-16T06:05:29;11.00;99.90
16140;DHT22;8175;49.326;12.690;2023-05-16T06:07:54;11.10;99.90
16140;DHT22;8175;49.326;12.690;2023-05-16T06:10:20;11.40;99.90
16140;DHT22;8175;49.326;12.690;2023-05-16T06:12:46;11.80;99.90
16140;DHT22;8175;49.326;12.690;2023-05-16T06:15:12;12.30;99.90
16140;DHT22;8175;49.326;12.690;2023-05-16T06:17:37;12.50;99.90
16140;DHT22;8175;49.326;12.690;2023-05-16T06:20:03;12.70;99.90
16140;DHT22;8175;49.326;12.690;2023-05-16T06:22:29;12.80;99.90
16140;DHT22;8175;49.326;12.690;2023-05-16T06:24:55;12.70;99.90
16140;DHT22;8175;49.326;12.690;2023-05-16T06:27:20;12.70;99.90
16140;DHT22;8175;49.326;12.690;2023-05-16T06:29:46;12.60;99.90
16140;DHT22;8175;49.326;12.690;2023-05-16T06:32:12;12.70;99.90
16140;DHT22;8175;49.326;12.690;2023-05-16T06:34:38;12.80;99.90
16140;DHT22;8175;49.326;12.690;2023-05-16T06:37:03;12.80;99.90
16140;DHT22;8175;49.326;12.690;2023-05-16T06:39:29;13.00;99.90
16140;DHT22;8175;49.326;12.690;2023-05-16T06:41:55;13.20;99.90
16140;DHT22;8175;49.326;12.690;2023-05-16T06:44:22;13.40;99.90
16140;DHT22;8175;49.326;12.690;2023-05-16T06:46:48;13.60;99.90
16140;DHT22;8175;49.326;12.690;2023-05-16T06:49:13;13.80;99.90
16140;DHT22;8175;49.326;12.690;2023-05-16T06:51:39;13.80;99.90
16140;DHT22;8175;49.326;12.690;2023-05-16T06:54:05;13.80;99.90
16140;DHT22;8175;49.326;12.690;2023-05-16T06:56:31;13.90;99.90
16140;DHT22;8175;49.326;12.690;2023-05-16T06:58:56;13.80;99.90
16140;DHT22;8175;49.326;12.690;2023-05-16T07:01:22;14.10;99.90
16140;DHT22;8175;49.326;12.690;2023-05-16T07:03:48;14.20;99.90
16140;DHT22;8175;49.326;12.690;2023-05-16T07:06:13;14.30;99.90
16140;DHT22;8175;49.326;12.690;2023-05-16T07:08:39;14.00;99.90
16140;DHT22;8175;49.326;12.690;2023-05-16T07:11:05;14.10;99.90
16140;DHT22;8175;49.326;12.690;2023-05-16T07:13:30;14.30;99.90
16140;DHT22;8175;49.326;12.690;2023-05-16T07:15:56;14.50;99.90
16140;DHT22;8175;49.326;12.690;2023-05-16T07:18:21;14.60;99.90
16140;DHT22;8175;49.326;12.690;2023-05-16T07:20:47;14.90;99.90
16140;DHT22;8175;49.326;12.690;2023-05-16T07:23:13;14.80;99.90
16140;DHT22;8175;49.326;12.690;2023-05-16T07:25:38;14.70;99.90
16140;DHT22;8175;49.326;12.690;2023-05-16T07:28:04;14.60;99.90
16140;DHT22;8175;49.326;12.690;2023-05-16T07:30:30;14.80;99.90
16140;DHT22;8175;49.326;12.690;2023-05-16T07:32:56;14.80;99.90
16140;DHT22;8175;49.326;12.690;2023-05-16T07:35:21;15.20;99.90
16140;DHT22;8175;49.326;12.690;2023-05-16T07:37:47;17.00;99.90
16140;DHT22;8175;49.326;12.690;2023-05-16T07:40:13;19.10;99.90
16140;DHT22;8175;49.326;12.690;2023-05-16T07:42:39;20.90;99.90
16140;DHT22;8175;49.326;12.690;2023-05-16T07:45:05;20.80;99.90
16140;DHT22;8175;49.326;12.690;2023-05-16T07:47:32;20.90;96.10
16140;DHT22;8175;49.326;12.690;2023-05-16T07:49:57;21.90;96.70
16140;DHT22;8175;49.326;12.690;2023-05-16T07:52:23;22.70;94.60
16140;DHT22;8175;49.326;12.690;2023-05-16T07:54:48;23.60;87.10
16140;DHT22;8175;49.326;12.690;2023-05-16T07:57:15;24.60;84.30
16140;DHT22;8175;49.326;12.690;2023-05-16T07:59:41;23.80;71.10
16140;DHT22;8175;49.326;12.690;2023-05-16T08:02:07;24.50;73.00
16140;DHT22;8175;49.326;12.690;2023-05-16T08:04:33;25.30;71.70
16140;DHT22;8175;49.326;12.690;2023-05-16T08:06:59;25.80;66.30
16140;DHT22;8175;49.326;12.690;2023-05-16T08:09:24;25.70;62.70
16140;DHT22;8175;49.326;12.690;2023-05-16T08:11:50;25.30;61.90
16140;DHT22;8175;49.326;12.690;2023-05-16T08:14:16;24.80;66.90
16140;DHT22;8175;49.326;12.690;2023-05-16T08:16:42;25.50;68.30
16140;DHT22;8175;49.326;12.690;2023-05-16T08:19:07;26.00;66.60
16140;DHT22;8175;49.326;12.690;2023-05-16T08:21:33;24.70;64.20
16140;DHT22;8175;49.326;12.690;2023-05-16T08:23:58;23.30;69.50
16140;DHT22;8175;49.326;12.690;2023-05-16T08:26:24;22.10;74.10
16140;DHT22;8175;49.326;12.690;2023-05-16T08:28:50;21.40;81.00
16140;DHT22;8175;49.326;12.690;2023-05-16T08:31:16;20.30;90.80
16140;DHT22;8175;49.326;12.690;2023-05-16T08:33:42;20.60;91.40
16140;DHT22;8175;49.326;12.690;2023-05-16T08:36:10;20.50;89.60
16140;DHT22;8175;49.326;12.690;2023-05-16T08:38:36;19.90;99.90
16140;DHT22;8175;49.326;12.690;2023-05-16T08:41:02;20.80;92.10
16140;DHT22;8175;49.326;12.690;2023-05-16T08:43:28;22.80;86.20
16140;DHT22;8175;49.326;12.690;2023-05-16T08:45:54;22.20;83.10
16140;DHT22;8175;49.326;12.690;2023-05-16T08:48:22;20.70;96.00
16140;DHT22;8175;49.326;12.690;2023-05-16T08:50:48;19.10;98.00
16140;DHT22;8175;49.326;12.690;2023-05-16T08:53:18;19.10;99.90
16140;DHT22;8175;49.326;12.690;2023-05-16T08:55:47;19.20;99.90
16140;DHT22;8175;49.326;12.690;2023-05-16T08:58:13;18.80;99.90
16140;DHT22;8175;49.326;12.690;2023-05-16T09:00:40;18.20;99.90
16140;DHT22;8175;49.326;12.690;2023-05-16T09:03:06;17.70;99.90
16140;DHT22;8175;49.326;12.690;2023-05-16T09:05:32;17.50;99.90
16140;DHT22;8175;49.326;12.690;2023-05-16T09:07:58;17.10;99.90
16140;DHT22;8175;49.326;12.690;2023-05-16T09:10:24;16.60;99.90
16140;DHT22;8175;49.326;12.690;2023-05-16T09:12:50;16.80;99.90
16140;DHT22;8175;49.326;12.690;2023-05-16T09:15:17;16.70;99.90
16140;DHT22;8175;49.326;12.690;2023-05-16T09:17:44;16.60;99.90
16140;DHT22;8175;49.326;12.690;2023-05-16T09:20:20;16.50;99.90
16140;DHT22;8175;49.326;12.690;2023-05-16T09:22:52;16.60;99.90
16140;DHT22;8175;49.326;12.690;2023-05-16T09:25:19;16.70;99.90
16140;DHT22;8175;49.326;12.690;2023-05-16T09:27:46;16.80;99.90
16140;DHT22;8175;49.326;12.690;2023-05-16T09:30:14;16.70;99.90
16140;DHT22;8175;49.326;12.690;2023-05-16T09:32:44;16.90;99.90
16140;DHT22;8175;49.326;12.690;2023-05-16T09:35:14;16.90;99.90
16140;DHT22;8175;49.326;12.690;2023-05-16T09:37:47;17.00;99.90
16140;DHT22;8175;49.326;12.690;2023-05-16T09:40:14;16.80;99.90
16140;DHT22;8175;49.326;12.690;2023-05-16T09:42:40;17.00;99.90
16140;DHT22;8175;49.326;12.690;2023-05-16T09:45:06;17.20;99.90
16140;DHT22;8175;49.326;12.690;2023-05-16T09:47:36;17.10;99.90
16140;DHT22;8175;49.326;12.690;2023-05-16T09:50:10;17.30;99.90
16140;DHT22;8175;49.326;12.690;2023-05-16T09:52:37;17.30;99.90
16140;DHT22;8175;49.326;12.690;2023-05-16T09:55:07;17.00;99.90
16140;DHT22;8175;49.326;12.690;2023-05-16T09:57:36;17.20;99.90
16140;DHT22;8175;49.326;12.690;2023-05-16T10:00:05;17.70;99.90
16140;DHT22;8175;49.326;12.690;2023-05-16T10:02:33;18.00;99.90
16140;DHT22;8175;49.326;12.690;2023-05-16T10:04:59;17.90;99.90
16140;DHT22;8175;49.326;12.690;2023-05-16T10:07:25;18.10;99.90
16140;DHT22;8175;49.326;12.690;2023-05-16T10:09:52;18.10;99.90
16140;DHT22;8175;49.326;12.690;2023-05-16T10:12:19;18.20;99.90
16140;DHT22;8175;49.326;12.690;2023-05-16T10:14:47;18.10;99.90
16140;DHT22;8175;49.326;12.690;2023-05-16T10:17:15;18.20;99.90
16140;DHT22;8175;49.326;12.690;2023-05-16T10:19:42;18.20;99.90
16140;DHT22;8175;49.326;12.690;2023-05-16T10:22:09;18.00;99.90
16140;DHT22;8175;49.326;12.690;2023-05-16T10:24:43;18.50;99.90
16140;DHT22;8175;49.326;12.690;2023-05-16T10:27:11;18.20;99.90
16140;DHT22;8175;49.326;12.690;2023-05-16T10:29:38;18.30;99.90
16140;DHT22;8175;49.326;12.690;2023-05-16T10:32:05;18.10;99.90
16140;DHT22;8175;49.326;12.690;2023-05-16T10:34:31;17.80;99.90
16140;DHT22;8175;49.326;12.690;2023-05-16T10:36:58;18.50;99.90
16140;DHT22;8175;49.326;12.690;2023-05-16T10:39:24;18.40;99.90
16140;DHT22;8175;49.326;12.690;2023-05-16T10:41:50;18.80;99.90
16140;DHT22;8175;49.326;12.690;2023-05-16T10:44:16;18.80;99.90
16140;DHT22;8175;49.326;12.690;2023-05-16T10:46:41;18.60;99.90
16140;DHT22;8175;49.326;12.690;2023-05-16T10:49:24;18.60;99.90
16140;DHT22;8175;49.326;12.690;2023-05-16T10:52:10;18.70;99.90
16140;DHT22;8175;49.326;12.690;2023-05-16T10:54:41;18.80;99.90
16140;DHT22;8175;49.326;12.690;2023-05-16T10:57:11;18.90;99.90
16140;DHT22;8175;49.326;12.690;2023-05-16T10:59:45;19.00;99.90
16140;DHT22;8175;49.326;12.690;2023-05-16T11:02:29;19.00;99.90
16140;DHT22;8175;49.326;12.690;2023-05-16T11:04:58;18.70;99.90
16140;DHT22;8175;49.326;12.690;2023-05-16T11:07:30;18.60;99.90
16140;DHT22;8175;49.326;12.690;2023-05-16T11:10:07;18.40;99.90
16140;DHT22;8175;49.326;12.690;2023-05-16T11:12:48;18.00;99.90
16140;DHT22;8175;49.326;12.690;2023-05-16T11:17:43;17.40;99.90
16140;DHT22;8175;49.326;12.690;2023-05-16T11:20:24;17.10;99.90
16140;DHT22;8175;49.326;12.690;2023-05-16T11:22:50;16.90;99.90
16140;DHT22;8175;49.326;12.690;2023-05-16T11:25:34;16.40;99.90
16140;DHT22;8175;49.326;12.690;2023-05-16T11:28:03;15.60;99.90
16140;DHT22;8175;49.326;12.690;2023-05-16T11:30:29;15.10;99.90
16140;DHT22;8175;49.326;12.690;2023-05-16T11:32:55;14.70;99.90
16140;DHT22;8175;49.326;12.690;2023-05-16T11:35:20;14.40;99.90
16140;DHT22;8175;49.326;12.690;2023-05-16T11:37:46;14.10;99.90
16140;DHT22;8175;49.326;12.690;2023-05-16T11:40:13;14.00;99.90
16140;DHT22;8175;49.326;12.690;2023-05-16T11:42:43;13.80;99.90
16140;DHT22;8175;49.326;12.690;2023-05-16T11:45:11;13.60;99.90
16140;DHT22;8175;49.326;12.690;2023-05-16T11:47:40;13.30;99.90
16140;DHT22;8175;49.326;12.690;2023-05-16T11:50:26;12.70;99.90
16140;DHT22;8175;49.326;12.690;2023-05-16T11:52:53;11.70;99.90
16140;DHT22;8175;49.326;12.690;2023-05-16T11:55:22;11.10;99.90
16140;DHT22;8175;49.326;12.690;2023-05-16T11:57:50;10.90;99.90
16140;DHT22;8175;49.326;12.690;2023-05-16T12:00:17;10.80;99.90
16140;DHT22;8175;49.326;12.690;2023-05-16T12:02:44;10.80;99.90
16140;DHT22;8175;49.326;12.690;2023-05-16T12:05:12;10.80;99.90
16140;DHT22;8175;49.326;12.690;2023-05-16T12:07:38;10.80;99.90
16140;DHT22;8175;49.326;12.690;2023-05-16T12:10:09;10.90;99.90
16140;DHT22;8175;49.326;12.690;2023-05-16T12:12:36;11.00;99.90
16140;DHT22;8175;49.326;12.690;2023-05-16T12:15:03;11.00;99.90
16140;DHT22;8175;49.326;12.690;2023-05-16T12:17:31;11.10;99.90
16140;DHT22;8175;49.326;12.690;2023-05-16T12:19:57;11.20;99.90
16140;DHT22;8175;49.326;12.690;2023-05-16T12:22:24;11.30;99.90
16140;DHT22;8175;49.326;12.690;2023-05-16T12:24:50;11.50;99.90
16140;DHT22;8175;49.326;12.690;2023-05-16T12:27:23;11.60;99.90
16140;DHT22;8175;49.326;12.690;2023-05-16T12:29:49;11.70;99.90
16140;DHT22;8175;49.326;12.690;2023-05-16T12:32:18;12.00;99.90
16140;DHT22;8175;49.326;12.690;2023-05-16T12:34:51;12.10;99.90
16140;DHT22;8175;49.326;12.690;2023-05-16T12:37:17;12.40;99.90
16140;DHT22;8175;49.326;12.690;2023-05-16T12:39:43;12.50;99.90
16140;DHT22;8175;49.326;12.690;2023-05-16T12:42:13;12.60;99.90
16140;DHT22;8175;49.326;12.690;2023-05-16T12:44:39;12.50;99.90
16140;DHT22;8175;49.326;12.690;2023-05-16T12:47:14;12.40;99.90
16140;DHT22;8175;49.326;12.690;2023-05-16T12:49:46;12.30;99.90
16140;DHT22;8175;49.326;12.690;2023-05-16T12:52:20;12.30;99.90
16140;DHT22;8175;49.326;12.690;2023-05-16T12:54:47;12.30;99.90
16140;DHT22;8175;49.326;12.690;2023-05-16T12:57:13;12.40;99.90
16140;DHT22;8175;49.326;12.690;2023-05-16T12:59:38;12.30;99.90
16140;DHT22;8175;49.326;12.690;2023-05-16T13:02:04;12.30;99.90
16140;DHT22;8175;49.326;12.690;2023-05-16T13:04:30;12.20;99.90
16140;DHT22;8175;49.326;12.690;2023-05-16T13:06:56;12.20;99.90
16140;DHT22;8175;49.326;12.690;2023-05-16T13:09:22;11.90;99.90
16140;DHT22;8175;49.326;12.690;2023-05-16T13:11:48;11.70;99.90
16140;DHT22;8175;49.326;12.690;2023-05-16T13:14:15;11.50;99.90
16140;DHT22;8175;49.326;12.690;2023-05-16T13:16:42;11.30;99.90
16140;DHT22;8175;49.326;12.690;2023-05-16T13:19:08;11.20;99.90
16140;DHT22;8175;49.326;12.690;2023-05-16T13:21:33;11.10;99.90
16140;DHT22;8175;49.326;12.690;2023-05-16T13:23:59;11.00;99.90
16140;DHT22;8175;49.326;12.690;2023-05-16T13:26:25;10.90;99.90
16140;DHT22;8175;49.326;12.690;2023-05-16T13:28:52;10.90;99.90
16140;DHT22;8175;49.326;12.690;2023-05-16T13:31:22;10.90;99.90
16140;DHT22;8175;49.326;12.690;2023-05-16T13:33:47;10.90;99.90
16140;DHT22;8175;49.326;12.690;2023-05-16T13:36:13;10.90;99.90
16140;DHT22;8175;49.326;12.690;2023-05-16T13:38:39;10.90;99.90
16140;DHT22;8175;49.326;12.690;2023-05-16T13:41:06;10.90;99.90
16140;DHT22;8175;49.326;12.690;2023-05-16T13:43:32;11.00;99.90
16140;DHT22;8175;49.326;12.690;2023-05-16T13:45:58;11.00;99.90
16140;DHT22;8175;49.326;12.690;2023-05-16T13:48:23;11.10;99.90
16140;DHT22;8175;49.326;12.690;2023-05-16T13:50:49;11.20;99.90
16140;DHT22;8175;49.326;12.690;2023-05-16T13:53:16;11.30;99.90
16140;DHT22;8175;49.326;12.690;2023-05-16T13:55:41;11.30;99.90
16140;DHT22;8175;49.326;12.690;2023-05-16T13:58:07;11.40;99.90
16140;DHT22;8175;49.326;12.690;2023-05-16T14:00:33;11.40;99.90
16140;DHT22;8175;49.326;12.690;2023-05-16T14:02:59;11.50;99.90
16140;DHT22;8175;49.326;12.690;2023-05-16T14:05:24;11.40;99.90
16140;DHT22;8175;49.326;12.690;2023-05-16T14:07:50;11.30;99.90
16140;DHT22;8175;49.326;12.690;2023-05-16T14:10:16;11.30;99.90
16140;DHT22;8175;49.326;12.690;2023-05-16T14:12:42;11.20;99.90
16140;DHT22;8175;49.326;12.690;2023-05-16T14:15:08;11.30;99.90
16140;DHT22;8175;49.326;12.690;2023-05-16T14:17:33;11.20;99.90
16140;DHT22;8175;49.326;12.690;2023-05-16T14:19:59;11.40;99.90
16140;DHT22;8175;49.326;12.690;2023-05-16T14:22:25;11.50;99.90
16140;DHT22;8175;49.326;12.690;2023-05-16T14:24:51;11.70;99.90
16140;DHT22;8175;49.326;12.690;2023-05-16T14:27:16;11.70;99.90
16140;DHT22;8175;49.326;12.690;2023-05-16T14:29:42;11.60;99.90
16140;DHT22;8175;49.326;12.690;2023-05-16T14:32:09;11.60;99.90
16140;DHT22;8175;49.326;12.690;2023-05-16T14:34:36;11.60;99.90
16140;DHT22;8175;49.326;12.690;2023-05-16T14:37:01;11.50;99.90
16140;DHT22;8175;49.326;12.690;2023-05-16T14:39:27;11.60;99.90
16140;DHT22;8175;49.326;12.690;2023-05-16T14:41:53;11.70;99.90
16140;DHT22;8175;49.326;12.690;2023-05-16T14:44:18;11.90;99.90
16140;DHT22;8175;49.326;12.690;2023-05-16T14:46:49;11.90;99.90
16140;DHT22;8175;49.326;12.690;2023-05-16T14:49:14;11.90;99.90
16140;DHT22;8175;49.326;12.690;2023-05-16T14:51:40;12.00;99.90
16140;DHT22;8175;49.326;12.690;2023-05-16T14:54:06;12.00;99.90
16140;DHT22;8175;49.326;12.690;2023-05-16T14:56:31;12.00;99.90
16140;DHT22;8175;49.326;12.690;2023-05-16T14:58:58;12.10;99.90
16140;DHT22;8175;49.326;12.690;2023-05-16T15:01:24;12.20;99.90
16140;DHT22;8175;49.326;12.690;2023-05-16T15:03:50;12.30;99.90
16140;DHT22;8175;49.326;12.690;2023-05-16T15:06:15;12.20;99.90
16140;DHT22;8175;49.326;12.690;2023-05-16T15:08:41;12.10;99.90
16140;DHT22;8175;49.326;12.690;2023-05-16T15:11:07;12.00;99.90
16140;DHT22;8175;49.326;12.690;2023-05-16T15:13:32;11.90;99.90
16140;DHT22;8175;49.326;12.690;2023-05-16T15:15:58;11.70;99.90
16140;DHT22;8175;49.326;12.690;2023-05-16T15:18:23;11.50;99.90
16140;DHT22;8175;49.326;12.690;2023-05-16T15:20:49;11.40;99.90
16140;DHT22;8175;49.326;12.690;2023-05-16T15:23:16;11.30;99.90
16140;DHT22;8175;49.326;12.690;2023-05-16T15:25:42;11.20;99.90
16140;DHT22;8175;49.326;12.690;2023-05-16T15:28:08;11.20;99.90
16140;DHT22;8175;49.326;12.690;2023-05-16T15:30:33;11.20;99.90
16140;DHT22;8175;49.326;12.690;2023-05-16T15:32:59;11.10;99.90
16140;DHT22;8175;49.326;12.690;2023-05-16T15:35:25;11.10;99.90
16140;DHT22;8175;49.326;12.690;2023-05-16T15:37:51;11.10;99.90
16140;DHT22;8175;49.326;12.690;2023-05-16T15:40:17;11.20;99.90
16140;DHT22;8175;49.326;12.690;2023-05-16T15:42:43;11.20;99.90
16140;DHT22;8175;49.326;12.690;2023-05-16T15:45:10;11.20;99.90
16140;DHT22;8175;49.326;12.690;2023-05-16T15:47:36;11.10;99.90
16140;DHT22;8175;49.326;12.690;2023-05-16T15:50:02;11.10;99.90
16140;DHT22;8175;49.326;12.690;2023-05-16T15:52:28;11.00;99.90
16140;DHT22;8175;49.326;12.690;2023-05-16T15:54:53;11.00;99.90
16140;DHT22;8175;49.326;12.690;2023-05-16T15:57:19;10.90;99.90
16140;DHT22;8175;49.326;12.690;2023-05-16T15:59:45;10.90;99.90
16140;DHT22;8175;49.326;12.690;2023-05-16T16:02:10;10.90;99.90
16140;DHT22;8175;49.326;12.690;2023-05-16T16:04:36;10.80;99.90
16140;DHT22;8175;49.326;12.690;2023-05-16T16:07:02;10.90;99.90
16140;DHT22;8175;49.326;12.690;2023-05-16T16:09:28;10.90;99.90
16140;DHT22;8175;49.326;12.690;2023-05-16T16:11:53;11.00;99.90
16140;DHT22;8175;49.326;12.690;2023-05-16T16:14:22;11.00;99.90
16140;DHT22;8175;49.326;12.690;2023-05-16T16:16:48;11.10;99.90
16140;DHT22;8175;49.326;12.690;2023-05-16T16:19:14;11.20;99.90
16140;DHT22;8175;49.326;12.690;2023-05-16T16:21:40;11.20;99.90
16140;DHT22;8175;49.326;12.690;2023-05-16T16:24:06;11.20;99.90
16140;DHT22;8175;49.326;12.690;2023-05-16T16:26:32;11.20;99.90
16140;DHT22;8175;49.326;12.690;2023-05-16T16:28:58;11.20;99.90
16140;DHT22;8175;49.326;12.690;2023-05-16T16:31:24;11.30;99.90
16140;DHT22;8175;49.326;12.690;2023-05-16T16:33:50;11.30;99.90
16140;DHT22;8175;49.326;12.690;2023-05-16T16:36:16;11.30;99.90
16140;DHT22;8175;49.326;12.690;2023-05-16T16:38:42;11.30;99.90
16140;DHT22;8175;49.326;12.690;2023-05-16T16:41:07;11.20;99.90
16140;DHT22;8175;49.326;12.690;2023-05-16T16:43:33;11.20;99.90
16140;DHT22;8175;49.326;12.690;2023-05-16T16:45:59;11.20;99.90
16140;DHT22;8175;49.326;12.690;2023-05-16T16:48:25;11.10;99.90
16140;DHT22;8175;49.326;12.690;2023-05-16T16:50:51;11.10;99.90
16140;DHT22;8175;49.326;12.690;2023-05-16T16:53:17;11.10;99.90
16140;DHT22;8175;49.326;12.690;2023-05-16T16:55:43;11.00;99.90
16140;DHT22;8175;49.326;12.690;2023-05-16T16:58:09;11.10;99.90
16140;DHT22;8175;49.326;12.690;2023-05-16T17:00:35;11.00;99.90
16140;DHT22;8175;49.326;12.690;2023-05-16T17:03:00;11.00;99.90
16140;DHT22;8175;49.326;12.690;2023-05-16T17:05:29;10.90;99.90
16140;DHT22;8175;49.326;12.690;2023-05-16T17:07:54;10.80;99.90
16140;DHT22;8175;49.326;12.690;2023-05-16T17:10:20;10.80;99.90
16140;DHT22;8175;49.326;12.690;2023-05-16T17:12:46;10.80;99.90
16140;DHT22;8175;49.326;12.690;2023-05-16T17:15:14;10.70;99.90
16140;DHT22;8175;49.326;12.690;2023-05-16T17:17:46;10.60;99.90
16140;DHT22;8175;49.326;12.690;2023-05-16T17:20:13;10.60;99.90
16140;DHT22;8175;49.326;12.690;2023-05-16T17:22:39;10.50;99.90
16140;DHT22;8175;49.326;12.690;2023-05-16T17:25:05;10.40;99.90
16140;DHT22;8175;49.326;12.690;2023-05-16T17:27:32;10.50;99.90
16140;DHT22;8175;49.326;12.690;2023-05-16T17:29:58;10.50;99.90
16140;DHT22;8175;49.326;12.690;2023-05-16T17:32:23;10.40;99.90
16140;DHT22;8175;49.326;12.690;2023-05-16T17:34:49;10.30;99.90
16140;DHT22;8175;49.326;12.690;2023-05-16T17:37:15;10.30;99.90
16140;DHT22;8175;49.326;12.690;2023-05-16T17:39:41;10.30;99.90
16140;DHT22;8175;49.326;12.690;2023-05-16T17:42:07;10.20;99.90
16140;DHT22;8175;49.326;12.690;2023-05-16T17:44:34;10.20;99.90
16140;DHT22;8175;49.326;12.690;2023-05-16T17:47:00;10.20;99.90
16140;DHT22;8175;49.326;12.690;2023-05-16T17:49:26;10.10;99.90
16140;DHT22;8175;49.326;12.690;2023-05-16T17:51:53;10.10;99.90
16140;DHT22;8175;49.326;12.690;2023-05-16T17:54:19;10.00;99.90
16140;DHT22;8175;49.326;12.690;2023-05-16T17:56:46;10.00;99.90
16140;DHT22;8175;49.326;12.690;2023-05-16T17:59:12;10.00;99.90
16140;DHT22;8175;49.326;12.690;2023-05-16T18:01:39;10.00;99.90
16140;DHT22;8175;49.326;12.690;2023-05-16T18:04:05;10.00;99.90
16140;DHT22;8175;49.326;12.690;2023-05-16T18:06:33;9.90;99.90
16140;DHT22;8175;49.326;12.690;2023-05-16T18:08:59;9.90;99.90
16140;DHT22;8175;49.326;12.690;2023-05-16T18:11:25;9.80;99.90